Time;durP1;ratioP1;P1;durP2;ratioP2;P2;SDS_P1;SDS_P2;PMS_P1;PMS_P2;Temp;Humidity;BMP_temperature;BMP_pressure;BME280_temperature;BME280_humidity;BME280_pressure;Samples;Min_cycle;Max_cycle;Signal;HPM_P1;HPM_P2
2022/11/01 00:01:25;;;;;;;22.63;14.63;;;12.70;99.90;;;;;;5051650;28;20049;-58
2022/11/01 00:03:50;;;;;;;24.13;14.50;;;12.80;99.90;;;;;;5051000;28;20024;-57
2022/11/01 00:06:16;;;;;;;20.73;14.05;;;13.00;99.90;;;;;;5051397;28;20033;-58
2022/11/01 00:08:42;;;;;;;23.02;13.95;;;12.80;99.90;;;;;;5050329;28;20721;-58
2022/11/01 00:11:12;;;;;;;28.75;14.82;;;12.90;99.90;;;;;;5033075;28;20047;-58
2022/11/01 00:13:37;;;;;;;31.13;14.45;;;13.00;99.90;;;;;;5051168;28;20041;-58
2022/11/01 00:16:03;;;;;;;21.92;13.50;;;13.10;99.90;;;;;;5051051;28;20508;-58
2022/11/01 00:18:29;;;;;;;22.48;13.77;;;13.40;99.90;;;;;;5050630;28;20052;-57
2022/11/01 00:20:54;;;;;;;22.05;12.70;;;13.20;99.90;;;;;;5050810;28;20029;-57
2022/11/01 00:23:20;;;;;;;24.02;12.88;;;13.20;99.90;;;;;;5050762;28;20449;-58
2022/11/01 00:25:46;;;;;;;21.85;12.90;;;13.00;99.90;;;;;;5050731;28;20132;-58
2022/11/01 00:28:12;;;;;;;20.80;12.35;;;13.00;99.90;;;;;;5050866;28;20040;-57
2022/11/01 00:30:38;;;;;;;23.85;12.07;;;12.90;99.90;;;;;;5049837;28;20068;-58
2022/11/01 00:33:05;;;;;;;20.35;11.68;;;14.30;99.90;;;;;;5050757;28;20064;-57
2022/11/01 00:35:31;;;;;;;19.27;10.82;;;13.00;99.90;;;;;;5049904;28;20120;-58
2022/11/01 00:38:01;;;;;;;22.38;12.90;;;12.70;99.90;;;;;;5056828;28;20459;-57
2022/11/01 00:40:26;;;;;;;19.95;11.75;;;13.00;99.90;;;;;;5050704;28;20048;-58
2022/11/01 00:42:52;;;;;;;20.58;11.98;;;14.00;99.90;;;;;;5030992;28;20045;-57
2022/11/01 00:45:18;;;;;;;20.95;12.45;;;13.30;99.90;;;;;;5050181;28;20033;-57
2022/11/01 00:47:46;;;;;;;20.65;11.75;;;13.80;99.90;;;;;;5031262;28;20045;-57
2022/11/01 00:50:12;;;;;;;21.13;11.38;;;13.50;99.90;;;;;;5050308;28;20101;-57
2022/11/01 00:52:38;;;;;;;21.33;11.55;;;13.50;99.90;;;;;;5050220;28;20037;-58
2022/11/01 00:55:04;;;;;;;20.50;10.70;;;14.00;99.90;;;;;;5050078;28;20037;-57
2022/11/01 00:57:29;;;;;;;19.23;9.68;;;13.00;99.90;;;;;;5049823;28;20557;-57
2022/11/01 00:59:55;;;;;;;18.65;10.43;;;13.20;99.90;;;;;;5050368;28;20075;-58
2022/11/01 01:02:21;;;;;;;19.02;10.68;;;13.90;99.90;;;;;;5032065;28;20047;-57
2022/11/01 01:04:47;;;;;;;19.35;10.95;;;13.50;99.90;;;;;;5050277;28;20033;-58
2022/11/01 01:07:13;;;;;;;18.05;10.15;;;13.80;99.90;;;;;;5049268;28;20041;-57
2022/11/01 01:09:39;;;;;;;16.77;9.95;;;13.70;99.90;;;;;;5061869;22;20044;-58
2022/11/01 01:12:04;;;;;;;18.55;10.65;;;13.80;99.90;;;;;;5012603;28;20037;-57
2022/11/01 01:14:33;;;;;;;17.65;10.13;;;13.80;99.90;;;;;;5030289;28;20041;-57
2022/11/01 01:16:59;;;;;;;18.20;10.70;;;13.40;99.90;;;;;;5029237;28;20068;-59
2022/11/01 01:19:25;;;;;;;17.75;10.23;;;14.60;99.90;;;;;;5029371;28;20467;-58
2022/11/01 01:21:51;;;;;;;20.20;10.27;;;13.80;99.90;;;;;;5030041;28;20029;-57
2022/11/01 01:24:17;;;;;;;17.58;9.57;;;;;;;;;;5020487;28;20044;-56
2022/11/01 01:26:44;;;;;;;15.82;10.23;;;13.80;99.90;;;;;;5039560;28;20087;-58
2022/11/01 01:29:10;;;;;;;16.67;9.77;;;14.10;99.90;;;;;;5033268;28;20067;-57
2022/11/01 01:31:36;;;;;;;15.80;9.32;;;14.50;99.90;;;;;;5029533;28;20520;-57
2022/11/01 01:34:01;;;;;;;19.60;9.68;;;14.00;99.90;;;;;;5030094;28;20042;-57
2022/11/01 01:36:27;;;;;;;18.63;10.10;;;14.00;99.90;;;;;;5029757;28;20049;-57
2022/11/01 01:38:53;;;;;;;19.02;9.70;;;13.20;99.90;;;;;;5022726;28;20037;-58
2022/11/01 01:44:23;;;;;;;19.33;10.63;;;;;;;;;;5029987;28;20515;-58
2022/11/01 01:46:49;;;;;;;17.92;10.25;;;13.40;99.90;;;;;;5028979;28;20053;-57
2022/11/01 01:49:17;;;;;;;23.15;10.18;;;13.60;99.90;;;;;;5029974;28;20048;-59
2022/11/01 01:51:43;;;;;;;18.40;10.45;;;13.90;99.90;;;;;;5028913;28;20045;-57
2022/11/01 01:54:11;;;;;;;16.10;9.70;;;13.30;99.90;;;;;;5029898;28;20454;-58
2022/11/01 01:56:37;;;;;;;17.55;10.70;;;14.10;99.90;;;;;;5031033;28;20037;-57
2022/11/01 01:59:06;;;;;;;22.08;11.38;;;14.10;99.90;;;;;;5033536;28;20537;-58
2022/11/01 02:01:39;;;;;;;16.90;9.32;;;13.40;99.90;;;;;;5034092;28;20041;-58
2022/11/01 02:04:42;;;;;;;18.60;9.80;;;14.40;99.90;;;;;;5026957;28;20034;-57
2022/11/01 02:07:08;;;;;;;17.63;9.18;;;13.30;99.90;;;;;;5010449;28;20049;-58
2022/11/01 02:09:36;;;;;;;16.13;9.13;;;13.30;99.90;;;;;;5033485;28;20120;-57
2022/11/01 02:12:02;;;;;;;13.80;8.60;;;13.80;99.90;;;;;;5033315;28;20034;-58
2022/11/01 02:14:28;;;;;;;14.82;8.77;;;13.70;99.90;;;;;;5033682;28;20038;-57
2022/11/01 02:17:00;;;;;;;15.35;8.07;;;13.50;99.90;;;;;;5015623;28;20129;-58
2022/11/01 02:19:35;;;;;;;15.73;9.25;;;13.70;99.90;;;;;;5029143;28;20037;-57
2022/11/01 02:22:48;;;;;;;14.52;8.80;;;14.20;99.90;;;;;;5020784;28;20437;-57
2022/11/01 02:25:45;;;;;;;15.38;8.35;;;14.00;99.90;;;;;;4967074;28;20405;-58
2022/11/01 02:28:29;;;;;;;13.35;8.43;;;13.90;99.90;;;;;;5028106;28;20030;-58
2022/11/01 02:31:16;;;;;;;15.33;8.33;;;14.20;99.90;;;;;;5033665;28;20594;-57
2022/11/01 02:33:47;;;;;;;18.23;9.65;;;13.70;99.90;;;;;;5025841;28;20092;-57
2022/11/01 02:36:25;;;;;;;15.20;8.75;;;13.60;99.90;;;;;;5016816;28;20037;-57
2022/11/01 02:38:58;;;;;;;16.48;8.30;;;14.10;99.90;;;;;;5032479;28;20033;-58
2022/11/01 02:41:31;;;;;;;18.92;9.63;;;14.00;99.90;;;;;;5015568;28;20042;-58
2022/11/01 02:44:04;;;;;;;15.35;8.40;;;14.50;99.90;;;;;;5032943;28;20048;-58
2022/11/01 02:49:20;;;;;;;16.23;8.00;;;14.20;99.90;;;;;;5032524;28;20116;-58
2022/11/01 02:51:48;;;;;;;14.48;7.28;;;14.40;99.90;;;;;;5019576;28;20084;-58
2022/11/01 02:54:21;;;;;;;14.95;8.25;;;14.60;99.90;;;;;;5033459;28;20496;-58
2022/11/01 02:56:46;;;;;;;13.82;8.02;;;14.60;99.90;;;;;;5032681;28;20037;-58
2022/11/01 02:59:25;;;;;;;18.77;7.82;;;14.60;99.90;;;;;;5014878;28;20087;-57
2022/11/01 03:02:07;;;;;;;14.85;8.38;;;14.20;99.90;;;;;;5032556;28;20030;-58
2022/11/01 03:04:34;;;;;;;13.95;8.20;;;14.30;99.90;;;;;;5032853;28;20048;-57
2022/11/01 03:07:04;;;;;;;14.73;7.88;;;14.30;99.90;;;;;;5014527;28;20042;-58
2022/11/01 03:09:31;;;;;;;13.05;7.50;;;14.40;99.90;;;;;;5032698;28;20079;-57
2022/11/01 03:12:28;;;;;;;13.45;7.63;;;14.20;99.90;;;;;;5032927;28;20057;-57
2022/11/01 03:15:01;;;;;;;14.13;6.95;;;14.50;99.90;;;;;;5023260;28;20045;-58
2022/11/01 03:17:37;;;;;;;15.97;7.23;;;14.80;99.90;;;;;;5032350;28;20418;-58
2022/11/01 03:20:13;;;;;;;13.57;8.18;;;14.50;99.90;;;;;;5032753;28;20396;-57
2022/11/01 03:22:53;;;;;;;12.40;6.97;;;14.30;99.90;;;;;;5032377;28;20045;-57
2022/11/01 03:25:40;;;;;;;14.68;7.85;;;14.20;99.90;;;;;;5032325;28;20065;-58
2022/11/01 03:28:32;;;;;;;11.13;7.40;;;15.00;99.90;;;;;;5024550;28;20495;-58
2022/11/01 03:31:18;;;;;;;12.00;6.10;;;14.40;99.90;;;;;;5027854;28;20045;-58
2022/11/01 03:33:51;;;;;;;11.80;6.05;;;14.70;99.90;;;;;;5031287;28;20044;-58
2022/11/01 03:36:19;;;;;;;12.52;6.95;;;14.90;99.90;;;;;;5032127;28;20049;-58
2022/11/01 03:38:51;;;;;;;13.90;7.82;;;14.60;99.90;;;;;;5031789;28;20037;-58
2022/11/01 03:41:18;;;;;;;11.65;6.55;;;14.20;99.90;;;;;;5031800;28;20109;-59
2022/11/01 03:43:46;;;;;;;14.93;9.27;;;15.10;99.90;;;;;;5038942;28;20069;-58
2022/11/01 03:46:13;;;;;;;14.07;7.30;;;14.90;99.90;;;;;;5013754;28;20038;-58
2022/11/01 03:48:40;;;;;;;14.27;7.10;;;14.90;99.90;;;;;;5013931;28;20503;-58
2022/11/01 03:51:06;;;;;;;18.80;7.05;;;14.40;99.90;;;;;;5031896;28;20040;-59
2022/11/01 03:53:31;;;;;;;15.35;7.43;;;14.10;99.90;;;;;;5032128;28;20043;-58
2022/11/01 03:55:57;;;;;;;12.38;6.25;;;14.90;99.90;;;;;;5031751;28;20052;-58
2022/11/01 03:58:40;;;;;;;15.60;7.40;;;14.20;99.90;;;;;;5013715;28;20041;-58
2022/11/01 04:01:07;;;;;;;14.80;7.22;;;14.60;99.90;;;;;;5013997;28;20072;-59
2022/11/01 04:03:32;;;;;;;13.00;7.07;;;14.80;99.90;;;;;;5040287;28;20047;-58
2022/11/01 04:05:58;;;;;;;12.15;6.30;;;14.90;99.90;;;;;;5014021;28;20124;-59
2022/11/01 04:08:23;;;;;;;9.85;6.30;;;14.70;99.90;;;;;;5030989;28;20059;-58
2022/11/01 04:10:49;;;;;;;13.98;7.32;;;14.80;99.90;;;;;;5040083;28;20091;-60
2022/11/01 04:13:14;;;;;;;14.20;7.43;;;15.00;99.90;;;;;;5035924;28;20028;-58
2022/11/01 04:21:27;;;;;;;14.77;6.88;;;14.70;99.90;;;;;;5036249;28;20040;-58
2022/11/01 04:23:53;;;;;;;10.88;6.57;;;15.10;99.90;;;;;;5034874;28;20544;-59
2022/11/01 04:26:22;;;;;;;9.95;6.65;;;15.10;99.90;;;;;;5045788;28;20044;-58
2022/11/01 04:28:57;;;;;;;14.75;6.55;;;15.10;99.90;;;;;;5039191;28;20041;-58
2022/11/01 04:31:30;;;;;;;12.80;7.00;;;15.60;99.90;;;;;;5030921;28;20072;-58
2022/11/01 04:33:57;;;;;;;13.73;6.60;;;15.00;99.90;;;;;;5031280;28;20044;-58
2022/11/01 04:36:23;;;;;;;12.20;6.22;;;15.10;99.90;;;;;;5031353;28;20384;-58
2022/11/01 04:38:59;;;;;;;12.18;6.28;;;15.70;99.90;;;;;;5032094;28;20457;-58
2022/11/01 04:41:27;;;;;;;13.52;5.78;;;15.30;99.90;;;;;;5039198;28;20525;-59
2022/11/01 04:43:54;;;;;;;12.23;5.95;;;14.80;99.90;;;;;;5043788;28;20044;-58
2022/11/01 04:46:21;;;;;;;13.77;6.38;;;15.00;99.90;;;;;;5014399;28;20048;-59
2022/11/01 04:48:49;;;;;;;10.40;6.18;;;15.70;99.90;;;;;;5031397;28;20041;-58
2022/11/01 04:51:15;;;;;;;12.15;6.20;;;16.10;99.90;;;;;;5026295;28;20580;-58
2022/11/01 04:53:41;;;;;;;13.77;5.70;;;;;;;;;;5031275;28;20033;-59
2022/11/01 04:56:09;;;;;;;8.63;4.88;;;15.00;99.90;;;;;;5030924;28;20104;-60
2022/11/01 04:58:35;;;;;;;11.07;4.65;;;15.30;99.90;;;;;;5030588;28;20048;-59
2022/11/01 05:01:05;;;;;;;10.10;3.65;;;15.30;99.90;;;;;;5030864;28;20033;-59
2022/11/01 05:03:31;;;;;;;7.90;3.47;;;15.00;99.90;;;;;;5031125;28;20037;-58
2022/11/01 05:05:58;;;;;;;7.55;3.10;;;14.90;99.90;;;;;;5013215;28;20484;-59
2022/11/01 05:08:23;;;;;;;6.53;2.80;;;15.00;99.90;;;;;;5029393;28;20414;-59
2022/11/01 05:10:52;;;;;;;9.52;2.95;;;;;;;;;;5030246;28;20030;-59
2022/11/01 05:13:17;;;;;;;5.32;2.22;;;15.30;99.90;;;;;;5030187;28;20037;-59
2022/11/01 05:15:43;;;;;;;6.10;2.22;;;14.90;99.90;;;;;;5012744;28;20399;-59
2022/11/01 05:18:08;;;;;;;6.10;2.35;;;14.90;99.90;;;;;;5030070;28;20357;-57
2022/11/01 05:20:37;;;;;;;9.02;2.63;;;16.00;99.90;;;;;;5013615;28;20042;-58
2022/11/01 05:23:04;;;;;;;6.05;2.83;;;15.00;99.90;;;;;;5034312;28;20068;-58
2022/11/01 05:25:30;;;;;;;6.43;2.13;;;14.30;99.90;;;;;;5029638;28;20491;-58
2022/11/01 05:28:06;;;;;;;7.47;2.00;;;14.80;99.90;;;;;;5032911;28;20029;-57
2022/11/01 05:30:32;;;;;;;5.95;1.90;;;14.50;99.90;;;;;;5012164;28;20095;-58
2022/11/01 05:33:02;;;;;;;5.82;1.60;;;14.80;97.80;;;;;;5030513;28;20120;-59
2022/11/01 05:35:31;;;;;;;7.32;2.15;;;14.70;93.60;;;;;;5010254;28;20165;-57
2022/11/01 05:37:57;;;;;;;8.32;1.70;;;14.80;99.90;;;;;;5029742;28;20049;-59
2022/11/01 05:40:23;;;;;;;5.68;1.58;;;14.80;99.90;;;;;;5030244;28;20034;-58
2022/11/01 05:42:49;;;;;;;5.20;1.45;;;14.50;99.90;;;;;;5029530;28;20136;-57
2022/11/01 05:45:15;;;;;;;5.38;1.95;;;14.60;85.40;;;;;;5030209;28;20125;-58
2022/11/01 05:47:41;;;;;;;5.93;1.75;;;14.50;84.00;;;;;;5011820;28;20045;-60
2022/11/01 05:50:11;;;;;;;5.15;1.60;;;14.40;72.20;;;;;;5027859;28;20042;-57
2022/11/01 05:52:38;;;;;;;9.05;1.52;;;14.70;34.90;;;;;;5027817;28;20042;-58
2022/11/01 05:55:04;;;;;;;6.82;1.40;;;14.50;40.20;;;;;;5029889;28;20029;-57
2022/11/01 05:57:30;;;;;;;7.38;1.85;;;14.50;20.80;;;;;;5029675;28;20514;-57
2022/11/01 05:59:55;;;;;;;6.80;1.67;;;14.30;10.40;;;;;;5030329;28;20065;-57
2022/11/01 06:02:21;;;;;;;9.63;1.85;;;;;;;;;;5024704;28;20073;-58
2022/11/01 06:04:47;;;;;;;8.05;1.80;;;13.80;39.20;;;;;;5035388;28;20041;-58
2022/11/01 06:07:12;;;;;;;5.70;1.30;;;14.50;67.50;;;;;;5035442;28;20036;-59
2022/11/01 06:09:38;;;;;;;6.25;1.42;;;14.60;64.30;;;;;;5033339;28;20039;-58
2022/11/01 06:12:04;;;;;;;8.68;1.52;;;14.00;75.20;;;;;;5015552;28;20155;-55
2022/11/01 06:14:30;;;;;;;6.20;1.33;;;14.30;82.80;;;;;;5014076;28;20048;-58
2022/11/01 06:16:55;;;;;;;6.47;1.90;;;14.10;92.70;;;;;;5016785;28;20121;-58
2022/11/01 06:19:21;;;;;;;6.93;1.80;;;13.80;61.80;;;;;;5024730;28;20052;-59
2022/11/01 06:21:46;;;;;;;7.03;1.80;;;14.40;21.30;;;;;;5021008;28;20041;-58
2022/11/01 06:24:16;;;;;;;10.43;2.00;;;;;;;;;;5019632;28;20128;-58
2022/11/01 06:26:42;;;;;;;8.63;2.08;;;13.70;1.00;;;;;;5016137;28;20060;-58
2022/11/01 06:29:08;;;;;;;9.48;2.13;;;14.60;1.00;;;;;;5016730;28;20116;-60
2022/11/01 06:31:33;;;;;;;11.20;2.35;;;14.50;1.00;;;;;;5017357;28;20345;-58
2022/11/01 06:33:59;;;;;;;9.70;2.00;;;14.20;1.00;;;;;;5022146;28;20440;-57
2022/11/01 06:36:24;;;;;;;9.05;2.08;;;14.70;1.00;;;;;;5022008;28;20049;-58
2022/11/01 06:38:50;;;;;;;6.18;2.10;;;13.60;1.00;;;;;;5027084;28;20029;-58
2022/11/01 06:41:16;;;;;;;9.75;2.00;;;14.20;9.50;;;;;;5023047;28;20396;-59
2022/11/01 06:43:42;;;;;;;9.70;1.92;;;13.70;1.00;;;;;;5026165;28;20048;-58
2022/11/01 06:46:07;;;;;;;7.63;2.80;;;14.10;1.00;;;;;;5024200;28;20045;-59
2022/11/01 06:48:33;;;;;;;11.35;1.98;;;14.40;1.00;;;;;;5026650;28;20064;-59
2022/11/01 06:51:02;;;;;;;10.15;2.38;;;14.20;1.00;;;;;;5030372;28;20067;-58
2022/11/01 06:53:28;;;;;;;12.15;3.38;;;14.90;1.00;;;;;;5031596;28;20091;-58
2022/11/01 06:55:56;;;;;;;11.60;2.53;;;14.60;1.00;;;;;;5032786;28;20103;-58
2022/11/01 06:58:22;;;;;;;10.88;1.98;;;14.30;1.00;;;;;;5032723;28;20033;-58
2022/11/01 07:00:48;;;;;;;12.77;2.40;;;14.50;1.00;;;;;;5015152;28;20041;-59
2022/11/01 07:03:13;;;;;;;8.18;2.53;;;14.20;1.00;;;;;;5033022;28;20028;-58
2022/11/01 07:05:40;;;;;;;10.18;2.40;;;;;;;;;;5031338;28;20037;-59
2022/11/01 07:08:07;;;;;;;13.00;2.70;;;14.20;1.00;;;;;;5027738;28;20069;-58
2022/11/01 07:10:35;;;;;;;8.82;2.30;;;13.50;1.00;;;;;;5008487;28;20033;-58
2022/11/01 07:13:03;;;;;;;8.35;2.00;;;13.60;1.00;;;;;;5022427;28;20044;-57
2022/11/01 07:15:30;;;;;;;18.20;2.65;;;14.60;1.00;;;;;;5013260;28;20120;-57
2022/11/01 07:18:00;;;;;;;11.13;3.03;;;13.60;1.00;;;;;;5026963;28;20045;-58
2022/11/01 07:20:28;;;;;;;10.23;2.42;;;14.50;1.00;;;;;;5035165;28;20037;-59
2022/11/01 07:23:04;;;;;;;11.57;2.75;;;13.90;1.00;;;;;;5011648;28;20231;-59
2022/11/01 07:25:30;;;;;;;18.38;3.67;;;13.80;1.00;;;;;;5032206;28;20047;-59
2022/11/01 07:27:57;;;;;;;10.52;3.03;;;14.00;1.00;;;;;;5030477;28;20069;-59
2022/11/01 07:30:22;;;;;;;12.32;3.97;;;14.10;1.00;;;;;;5030361;28;20035;-59
2022/11/01 07:32:53;;;;;;;15.98;3.28;;;14.40;1.00;;;;;;5031071;28;20042;-59
2022/11/01 07:35:18;;;;;;;14.07;2.97;;;13.50;1.00;;;;;;5031359;28;20038;-60
2022/11/01 07:37:44;;;;;;;10.07;2.35;;;14.60;1.00;;;;;;5028558;28;20041;-59
2022/11/01 07:40:10;;;;;;;11.73;2.25;;;14.00;1.00;;;;;;5029524;28;20037;-59
2022/11/01 07:42:44;;;;;;;12.27;2.85;;;14.20;1.00;;;;;;5045732;28;20137;-59
2022/11/01 07:45:11;;;;;;;12.63;3.23;;;14.40;1.00;;;;;;5036343;28;20037;-58
2022/11/01 07:47:37;;;;;;;13.77;2.78;;;13.80;1.00;;;;;;5033065;28;20122;-59
2022/11/01 07:50:04;;;;;;;11.50;2.80;;;14.40;1.00;;;;;;5037934;28;20091;-58
2022/11/01 07:52:30;;;;;;;9.93;2.72;;;14.10;1.00;;;;;;5011766;28;20049;-59
2022/11/01 07:54:56;;;;;;;13.55;2.90;;;14.40;1.00;;;;;;5020591;28;20108;-59
2022/11/01 07:57:21;;;;;;;13.35;3.40;;;14.60;1.00;;;;;;5028998;28;20560;-59
2022/11/01 07:59:47;;;;;;;9.90;2.60;;;13.60;1.00;;;;;;5031470;28;20042;-59
2022/11/01 08:02:12;;;;;;;18.20;3.95;;;14.40;1.00;;;;;;5031014;28;20034;-59
2022/11/01 08:04:38;;;;;;;10.68;2.90;;;14.30;1.00;;;;;;5032551;28;20036;-58
2022/11/01 08:07:04;;;;;;;15.63;2.78;;;14.70;1.00;;;;;;5017992;28;20544;-59
2022/11/01 08:09:29;;;;;;;13.23;2.60;;;13.90;1.00;;;;;;5029077;28;20046;-59
2022/11/01 08:11:55;;;;;;;14.23;3.10;;;15.20;1.00;;;;;;5026897;28;20041;-59
2022/11/01 08:14:20;;;;;;;12.88;2.80;;;13.90;1.00;;;;;;5012821;28;20363;-58
2022/11/01 08:16:54;;;;;;;15.18;3.88;;;13.90;1.00;;;;;;5030931;28;20052;-58
2022/11/01 08:19:20;;;;;;;11.43;3.10;;;14.20;1.00;;;;;;5030749;28;20044;-59
2022/11/01 08:21:49;;;;;;;15.35;4.53;;;14.20;1.00;;;;;;5027561;28;20112;-59
2022/11/01 08:24:14;;;;;;;10.95;2.72;;;14.10;1.00;;;;;;5030895;28;20037;-59
2022/11/01 08:26:40;;;;;;;11.52;3.33;;;14.60;1.00;;;;;;5030677;28;20033;-59
2022/11/01 08:29:06;;;;;;;13.07;3.55;;;13.50;1.00;;;;;;5030942;28;20547;-59
2022/11/01 08:31:31;;;;;;;15.05;4.10;;;14.50;1.00;;;;;;5013330;28;20048;-58
2022/11/01 08:33:57;;;;;;;13.10;3.00;;;14.60;1.00;;;;;;5028488;28;20533;-59
2022/11/01 08:36:22;;;;;;;10.68;2.90;;;14.00;1.00;;;;;;5026953;28;20041;-57
2022/11/01 08:38:48;;;;;;;15.25;2.85;;;13.60;1.00;;;;;;5024611;28;20033;-59
2022/11/01 08:41:14;;;;;;;18.92;3.90;;;14.70;1.00;;;;;;5024460;28;20037;-59
2022/11/01 08:43:40;;;;;;;18.13;3.45;;;14.20;1.00;;;;;;5030982;28;20053;-59
2022/11/01 08:46:06;;;;;;;10.88;3.13;;;13.50;1.00;;;;;;5028113;28;20124;-58
2022/11/01 08:48:31;;;;;;;15.77;3.53;;;14.40;1.00;;;;;;5029965;28;20068;-58
2022/11/01 08:50:57;;;;;;;16.83;3.80;;;13.60;1.00;;;;;;5030294;28;20033;-57
2022/11/01 08:53:23;;;;;;;13.15;2.92;;;13.60;1.00;;;;;;5028488;28;20403;-57
2022/11/01 08:55:54;;;;;;;12.40;2.97;;;13.80;1.00;;;;;;5011948;28;20069;-59
2022/11/01 08:58:20;;;;;;;18.42;4.10;;;14.60;1.00;;;;;;5028364;28;20184;-57
2022/11/01 09:00:45;;;;;;;15.10;3.38;;;14.70;1.00;;;;;;5030184;28;20038;-56
2022/11/01 09:03:11;;;;;;;19.42;3.78;;;;;;;;;;5030542;28;20041;-57
2022/11/01 09:05:37;;;;;;;17.15;3.55;;;14.10;1.00;;;;;;5010902;28;20051;-59
2022/11/01 09:08:03;;;;;;;13.50;3.17;;;14.10;1.00;;;;;;5011567;28;20088;-58
2022/11/01 09:10:29;;;;;;;19.30;3.90;;;14.10;1.00;;;;;;5027819;28;20475;-56
2022/11/01 09:12:56;;;;;;;15.18;3.58;;;13.90;1.00;;;;;;5029660;28;20112;-57
2022/11/01 09:15:21;;;;;;;20.23;3.88;;;14.80;1.00;;;;;;5037437;28;20035;-59
2022/11/01 09:17:47;;;;;;;12.32;3.67;;;14.50;1.00;;;;;;5029853;28;20279;-58
2022/11/01 09:20:14;;;;;;;10.93;3.78;;;14.60;1.00;;;;;;5029240;28;20037;-59
2022/11/01 09:22:39;;;;;;;16.77;3.08;;;14.70;1.00;;;;;;5029609;28;20519;-59
2022/11/01 09:25:05;;;;;;;19.83;4.30;;;14.90;1.00;;;;;;5028982;28;20036;-59
2022/11/01 09:27:31;;;;;;;13.55;2.75;;;14.90;1.00;;;;;;5037185;28;20048;-59
2022/11/01 09:29:57;;;;;;;14.82;2.80;;;15.00;1.00;;;;;;5031449;28;20050;-59
2022/11/01 09:32:25;;;;;;;14.32;3.92;;;14.50;1.00;;;;;;5032724;28;20037;-59
2022/11/01 09:34:51;;;;;;;16.60;3.28;;;14.80;1.00;;;;;;5027454;28;20037;-58
2022/11/01 09:37:16;;;;;;;12.50;2.83;;;14.70;1.00;;;;;;5024859;28;20042;-59
2022/11/01 09:39:42;;;;;;;13.82;3.13;;;14.20;1.00;;;;;;5024403;28;20034;-57
2022/11/01 09:42:17;;;;;;;17.48;4.20;;;14.70;1.00;;;;;;5027995;28;20456;-56
2022/11/01 09:44:46;;;;;;;19.67;3.25;;;14.80;1.00;;;;;;5027693;28;20039;-57
2022/11/01 09:47:20;;;;;;;12.57;3.30;;;14.40;1.00;;;;;;5026950;28;20418;-58
2022/11/01 09:49:49;;;;;;;16.40;4.00;;;;;;;;;;5029560;28;20099;-59
2022/11/01 09:52:19;;;;;;;14.27;4.20;;;14.40;1.00;;;;;;5009688;28;20127;-58
2022/11/01 09:54:45;;;;;;;13.38;3.50;;;14.90;1.00;;;;;;5023162;28;20468;-58
2022/11/01 09:57:23;;;;;;;18.33;3.42;;;14.60;1.00;;;;;;5028429;28;20060;-58
2022/11/01 10:00:03;;;;;;;14.95;3.50;;;14.80;1.00;;;;;;5026959;28;20034;-57
2022/11/01 10:02:35;;;;;;;18.63;3.63;;;14.90;1.00;;;;;;5029153;28;20029;-58
2022/11/01 10:05:29;;;;;;;12.25;3.63;;;14.60;1.00;;;;;;5032979;28;20045;-59
2022/11/01 10:08:32;;;;;;;13.57;3.57;;;14.70;1.00;;;;;;5029604;28;20041;-59
2022/11/01 10:11:29;;;;;;;15.25;4.40;;;14.30;1.00;;;;;;5009388;28;20286;-59
2022/11/01 10:14:15;;;;;;;14.70;3.70;;;14.10;1.00;;;;;;5023263;28;20072;-59
2022/11/01 10:17:08;;;;;;;15.73;3.95;;;14.70;1.00;;;;;;5027776;28;20049;-59
2022/11/01 10:19:35;;;;;;;14.13;3.45;;;14.30;1.00;;;;;;5019514;28;20142;-60
2022/11/01 10:22:11;;;;;;;10.60;3.45;;;15.00;1.00;;;;;;5010370;28;20048;-59
2022/11/01 10:25:18;;;;;;;11.15;3.25;;;14.70;1.00;;;;;;5010160;28;20038;-59
2022/11/01 10:28:11;;;;;;;14.43;3.80;;;14.40;1.00;;;;;;4909116;29;20052;-59
2022/11/01 10:30:45;;;;;;;18.65;3.90;;;14.90;1.00;;;;;;4905516;29;20119;-58
2022/11/01 10:33:37;;;;;;;15.57;3.47;;;15.00;1.00;;;;;;4989419;28;20045;-58
2022/11/01 10:36:10;;;;;;;17.83;4.15;;;14.70;1.00;;;;;;5025691;28;20519;-59
2022/11/01 10:38:38;;;;;;;11.68;3.97;;;14.90;1.00;;;;;;5013503;28;20492;-58
2022/11/01 10:41:40;;;;;;;11.88;2.80;;;15.20;1.00;;;;;;5031875;28;20029;-59
2022/11/01 10:44:17;;;;;;;14.20;3.20;;;15.10;1.00;;;;;;5029948;28;20061;-59
2022/11/01 10:46:47;;;;;;;14.38;3.92;;;14.90;1.00;;;;;;5015095;28;20526;-59
2022/11/01 10:49:23;;;;;;;13.25;3.88;;;14.10;1.00;;;;;;5032932;28;20069;-58
2022/11/01 10:51:53;;;;;;;12.93;2.80;;;14.20;1.00;;;;;;5033035;28;20121;-59
2022/11/01 10:54:24;;;;;;;14.25;3.35;;;15.00;1.00;;;;;;4999029;28;20052;-57
2022/11/01 10:56:53;;;;;;;13.63;3.78;;;14.70;1.00;;;;;;5032109;28;20041;-57
2022/11/01 10:59:33;;;;;;;15.60;3.25;;;14.60;1.00;;;;;;5015003;28;20033;-58
2022/11/01 11:02:00;;;;;;;13.70;3.17;;;14.20;1.00;;;;;;5032738;28;20034;-58
2022/11/01 11:04:27;;;;;;;13.90;3.15;;;14.80;1.00;;;;;;5032631;28;20037;-58
2022/11/01 11:06:56;;;;;;;12.65;4.97;;;14.90;1.00;;;;;;5023487;28;20565;-59
2022/11/01 11:09:33;;;;;;;11.38;2.95;;;13.90;1.00;;;;;;5032405;28;20029;-57
2022/11/01 11:12:07;;;;;;;13.23;3.15;;;14.90;1.00;;;;;;4999145;28;20048;-59
2022/11/01 11:14:33;;;;;;;12.60;3.23;;;14.30;1.00;;;;;;5032300;28;20069;-59
2022/11/01 11:17:00;;;;;;;13.20;2.72;;;;;;;;;;5014615;28;20049;-60
2022/11/01 11:19:28;;;;;;;10.63;3.55;;;14.30;1.00;;;;;;5032349;28;20040;-59
2022/11/01 11:21:57;;;;;;;11.43;4.38;;;14.10;1.00;;;;;;5032710;28;20033;-60
2022/11/01 11:24:34;;;;;;;12.60;2.70;;;14.60;1.00;;;;;;5031367;28;20033;-59
2022/11/01 11:27:02;;;;;;;13.30;2.85;;;14.50;1.00;;;;;;5028080;28;20038;-58
2022/11/01 11:29:38;;;;;;;16.20;3.78;;;14.60;1.00;;;;;;5028324;28;20056;-57
2022/11/01 11:32:12;;;;;;;18.40;3.60;;;14.50;1.00;;;;;;5024373;28;20435;-58
2022/11/01 11:34:40;;;;;;;11.30;2.95;;;14.50;1.00;;;;;;5031023;28;20524;-57
2022/11/01 11:37:07;;;;;;;17.95;3.38;;;15.00;1.00;;;;;;5031568;28;20034;-59
2022/11/01 11:39:36;;;;;;;11.80;3.30;;;15.60;1.00;;;;;;5033225;28;20111;-57
2022/11/01 11:42:13;;;;;;;15.02;3.22;;;15.10;1.00;;;;;;5032151;28;20371;-59
2022/11/01 11:44:45;;;;;;;13.23;3.05;;;14.90;1.00;;;;;;5035281;28;20036;-59
2022/11/01 11:47:33;;;;;;;14.40;3.50;;;15.10;1.00;;;;;;5031273;28;20398;-58
2022/11/01 11:49:59;;;;;;;17.00;4.30;;;14.60;1.00;;;;;;5031895;28;20099;-57
2022/11/01 11:52:46;;;;;;;15.38;3.80;;;16.10;1.00;;;;;;5010940;28;20252;-60
2022/11/01 11:55:34;;;;;;;10.65;2.58;;;16.40;1.00;;;;;;5025750;28;20044;-58
2022/11/01 11:58:02;;;;;;;17.88;3.55;;;15.10;1.00;;;;;;5029449;28;20041;-58
2022/11/01 12:00:29;;;;;;;14.27;3.90;;;15.40;1.00;;;;;;5034981;28;20045;-60
2022/11/01 12:02:55;;;;;;;12.40;2.92;;;;;;;;;;5029134;28;20045;-59
2022/11/01 12:05:22;;;;;;;15.63;2.97;;;15.60;1.00;;;;;;5030641;28;20067;-58
2022/11/01 12:07:50;;;;;;;17.27;4.03;;;;;;;;;;5023072;28;20064;-60
2022/11/01 12:10:38;;;;;;;14.10;2.67;;;16.00;1.00;;;;;;5027427;28;20057;-57
2022/11/01 12:13:30;;;;;;;8.60;2.92;;;16.50;1.00;;;;;;5026455;28;20116;-56
2022/11/01 12:16:19;;;;;;;19.40;4.60;;;16.60;1.00;;;;;;5028130;28;20060;-56
2022/11/01 12:19:17;;;;;;;14.05;2.67;;;;;;;;;;5037584;28;20041;-56
2022/11/01 12:21:43;;;;;;;13.77;3.05;;;17.10;1.00;;;;;;5002539;28;20049;-56
2022/11/01 12:24:25;;;;;;;10.90;2.90;;;17.40;1.00;;;;;;5031118;28;20032;-56
2022/11/01 12:26:55;;;;;;;12.13;3.22;;;17.60;1.00;;;;;;5030819;28;20454;-57
2022/11/01 12:29:30;;;;;;;8.55;2.95;;;17.80;1.00;;;;;;5031318;28;20073;-57
2022/11/01 12:31:59;;;;;;;;;;;17.80;1.00;;;;;;5038633;28;20480;-53
2022/11/01 12:34:30;;;;;;;12.18;2.83;;;18.10;1.00;;;;;;5035836;28;20268;-57
2022/11/01 12:37:02;;;;;;;12.85;2.95;;;18.00;1.00;;;;;;5017785;28;20042;-56
2022/11/01 12:39:30;;;;;;;12.52;3.38;;;17.00;1.00;;;;;;5019623;28;20056;-56
2022/11/01 12:42:02;;;;;;;14.10;2.50;;;17.40;1.00;;;;;;5026656;28;20099;-57
2022/11/01 12:44:37;;;;;;;15.65;3.10;;;16.90;1.00;;;;;;5027445;28;20466;-56
2022/11/01 12:47:15;;;;;;;15.05;2.83;;;16.90;1.00;;;;;;5017228;28;20064;-55
2022/11/01 12:49:50;;;;;;;12.88;3.60;;;17.10;1.00;;;;;;5031684;28;20046;-57
2022/11/01 12:52:18;;;;;;;12.40;3.20;;;18.70;1.00;;;;;;5024028;28;20543;-57
2022/11/01 12:55:23;;;;;;;12.55;3.00;;;19.10;1.00;;;;;;5027777;28;20065;-55
2022/11/01 12:57:48;;;;;;;8.38;2.58;;;19.50;99.90;;;;;;5024955;28;20495;-54
2022/11/01 13:00:16;;;;;;;10.50;2.28;;;19.50;99.90;;;;;;5011357;28;20041;-57
2022/11/01 13:03:08;;;;;;;8.20;2.58;;;20.10;99.90;;;;;;5023917;28;20072;-58
2022/11/01 13:05:44;;;;;;;14.85;2.72;;;20.20;99.90;;;;;;5011986;28;20076;-56
2022/11/01 13:08:15;;;;;;;14.93;2.85;;;20.00;99.90;;;;;;5023567;28;20068;-56
2022/11/01 13:10:45;;;;;;;13.75;2.78;;;20.40;99.90;;;;;;5028888;28;20079;-59
2022/11/01 13:13:11;;;;;;;10.43;2.05;;;20.50;99.90;;;;;;5030287;28;20046;-56